sensor_id;sensor_type;location;lat;lon;timestamp;P1;durP1;ratioP1;P2;durP2;ratioP2
20118;SDS011;10220;42.716;23.306;2023-03-14T00:01:21;3.60;;;1.93;;
20118;SDS011;10220;42.716;23.306;2023-03-14T00:03:47;4.50;;;2.73;;
20118;SDS011;10220;42.716;23.306;2023-03-14T00:06:13;3.33;;;2.30;;
20118;SDS011;10220;42.716;23.306;2023-03-14T00:08:40;3.03;;;2.03;;
20118;SDS011;10220;42.716;23.306;2023-03-14T00:11:07;2.47;;;1.97;;
20118;SDS011;10220;42.716;23.306;2023-03-14T00:13:52;5.93;;;2.13;;
20118;SDS011;10220;42.716;23.306;2023-03-14T00:16:18;2.67;;;1.67;;
20118;SDS011;10220;42.716;23.306;2023-03-14T00:18:46;2.37;;;1.97;;
20118;SDS011;10220;42.716;23.306;2023-03-14T00:21:12;1.90;;;1.80;;
20118;SDS011;10220;42.716;23.306;2023-03-14T00:23:38;2.50;;;1.87;;
20118;SDS011;10220;42.716;23.306;2023-03-14T00:26:06;2.67;;;1.97;;
20118;SDS011;10220;42.716;23.306;2023-03-14T00:28:34;1.40;;;1.30;;
20118;SDS011;10220;42.716;23.306;2023-03-14T00:31:05;2.13;;;1.27;;
20118;SDS011;10220;42.716;23.306;2023-03-14T00:33:31;1.47;;;1.37;;
20118;SDS011;10220;42.716;23.306;2023-03-14T00:35:58;3.27;;;1.73;;
20118;SDS011;10220;42.716;23.306;2023-03-14T00:38:25;2.27;;;1.73;;
20118;SDS011;10220;42.716;23.306;2023-03-14T00:40:51;3.03;;;1.10;;
20118;SDS011;10220;42.716;23.306;2023-03-14T00:43:17;4.20;;;1.80;;
20118;SDS011;10220;42.716;23.306;2023-03-14T00:45:52;1.40;;;1.30;;
20118;SDS011;10220;42.716;23.306;2023-03-14T00:48:18;4.13;;;1.83;;
20118;SDS011;10220;42.716;23.306;2023-03-14T00:50:45;6.40;;;1.70;;
20118;SDS011;10220;42.716;23.306;2023-03-14T00:53:11;2.67;;;1.70;;
20118;SDS011;10220;42.716;23.306;2023-03-14T00:55:40;1.10;;;0.83;;
20118;SDS011;10220;42.716;23.306;2023-03-14T00:58:10;2.47;;;1.60;;
20118;SDS011;10220;42.716;23.306;2023-03-14T01:00:40;1.67;;;1.57;;
20118;SDS011;10220;42.716;23.306;2023-03-14T01:03:06;2.57;;;1.57;;
20118;SDS011;10220;42.716;23.306;2023-03-14T01:05:32;1.03;;;1.00;;
20118;SDS011;10220;42.716;23.306;2023-03-14T01:07:58;4.13;;;1.77;;
20118;SDS011;10220;42.716;23.306;2023-03-14T01:10:23;1.70;;;1.60;;
20118;SDS011;10220;42.716;23.306;2023-03-14T01:12:49;1.57;;;1.47;;
20118;SDS011;10220;42.716;23.306;2023-03-14T01:15:15;2.07;;;1.73;;
20118;SDS011;10220;42.716;23.306;2023-03-14T01:17:40;5.43;;;1.47;;
20118;SDS011;10220;42.716;23.306;2023-03-14T01:20:07;1.70;;;1.37;;
20118;SDS011;10220;42.716;23.306;2023-03-14T01:22:35;1.53;;;1.13;;
20118;SDS011;10220;42.716;23.306;2023-03-14T01:25:01;2.07;;;1.93;;
20118;SDS011;10220;42.716;23.306;2023-03-14T01:27:27;1.53;;;1.30;;
20118;SDS011;10220;42.716;23.306;2023-03-14T01:29:54;2.90;;;1.70;;
20118;SDS011;10220;42.716;23.306;2023-03-14T01:32:20;1.53;;;1.20;;
20118;SDS011;10220;42.716;23.306;2023-03-14T01:34:45;1.93;;;1.60;;
20118;SDS011;10220;42.716;23.306;2023-03-14T01:37:11;1.70;;;1.57;;
20118;SDS011;10220;42.716;23.306;2023-03-14T01:39:37;3.73;;;1.07;;
20118;SDS011;10220;42.716;23.306;2023-03-14T01:42:02;3.20;;;1.53;;
20118;SDS011;10220;42.716;23.306;2023-03-14T01:44:49;1.40;;;1.27;;
20118;SDS011;10220;42.716;23.306;2023-03-14T01:47:14;2.43;;;2.10;;
20118;SDS011;10220;42.716;23.306;2023-03-14T01:49:40;3.20;;;2.90;;
20118;SDS011;10220;42.716;23.306;2023-03-14T01:52:07;3.70;;;3.40;;
20118;SDS011;10220;42.716;23.306;2023-03-14T01:54:39;6.47;;;4.83;;
20118;SDS011;10220;42.716;23.306;2023-03-14T02:00:19;6.67;;;3.67;;
20118;SDS011;10220;42.716;23.306;2023-03-14T02:02:49;10.80;;;4.13;;
20118;SDS011;10220;42.716;23.306;2023-03-14T02:05:38;6.73;;;2.67;;
20118;SDS011;10220;42.716;23.306;2023-03-14T02:08:10;5.47;;;3.40;;
20118;SDS011;10220;42.716;23.306;2023-03-14T02:10:39;3.47;;;3.27;;
20118;SDS011;10220;42.716;23.306;2023-03-14T02:13:08;6.37;;;3.67;;
20118;SDS011;10220;42.716;23.306;2023-03-14T02:15:35;4.57;;;4.17;;
20118;SDS011;10220;42.716;23.306;2023-03-14T02:18:01;11.30;;;4.57;;
20118;SDS011;10220;42.716;23.306;2023-03-14T02:23:06;3.10;;;2.80;;
20118;SDS011;10220;42.716;23.306;2023-03-14T02:28:10;4.67;;;3.77;;
20118;SDS011;10220;42.716;23.306;2023-03-14T02:30:36;5.80;;;3.77;;
20118;SDS011;10220;42.716;23.306;2023-03-14T02:33:03;6.00;;;3.57;;
20118;SDS011;10220;42.716;23.306;2023-03-14T02:35:39;3.87;;;3.33;;
20118;SDS011;10220;42.716;23.306;2023-03-14T02:40:41;8.17;;;4.83;;
20118;SDS011;10220;42.716;23.306;2023-03-14T02:43:06;9.67;;;6.63;;
20118;SDS011;10220;42.716;23.306;2023-03-14T02:48:04;9.30;;;5.50;;
20118;SDS011;10220;42.716;23.306;2023-03-14T02:50:34;4.73;;;3.17;;
20118;SDS011;10220;42.716;23.306;2023-03-14T02:52:59;7.27;;;4.23;;
20118;SDS011;10220;42.716;23.306;2023-03-14T02:55:25;3.83;;;3.47;;
20118;SDS011;10220;42.716;23.306;2023-03-14T02:57:52;5.00;;;4.50;;
20118;SDS011;10220;42.716;23.306;2023-03-14T03:00:20;4.37;;;3.17;;
20118;SDS011;10220;42.716;23.306;2023-03-14T03:02:45;5.13;;;4.10;;
20118;SDS011;10220;42.716;23.306;2023-03-14T03:05:11;5.70;;;3.93;;
20118;SDS011;10220;42.716;23.306;2023-03-14T03:07:36;2.97;;;2.60;;
20118;SDS011;10220;42.716;23.306;2023-03-14T03:10:11;6.13;;;3.87;;
20118;SDS011;10220;42.716;23.306;2023-03-14T03:12:48;3.80;;;3.37;;
20118;SDS011;10220;42.716;23.306;2023-03-14T03:15:14;7.43;;;3.77;;
20118;SDS011;10220;42.716;23.306;2023-03-14T03:17:51;4.57;;;4.07;;
20118;SDS011;10220;42.716;23.306;2023-03-14T03:20:16;8.87;;;4.00;;
20118;SDS011;10220;42.716;23.306;2023-03-14T03:22:42;7.37;;;4.67;;
20118;SDS011;10220;42.716;23.306;2023-03-14T03:25:07;4.97;;;4.30;;
20118;SDS011;10220;42.716;23.306;2023-03-14T03:27:34;5.07;;;3.87;;
20118;SDS011;10220;42.716;23.306;2023-03-14T03:30:01;4.20;;;3.80;;
20118;SDS011;10220;42.716;23.306;2023-03-14T03:32:26;4.47;;;4.03;;
20118;SDS011;10220;42.716;23.306;2023-03-14T03:34:52;4.83;;;3.63;;
20118;SDS011;10220;42.716;23.306;2023-03-14T03:37:17;5.00;;;4.47;;
20118;SDS011;10220;42.716;23.306;2023-03-14T03:39:43;3.53;;;3.23;;
20118;SDS011;10220;42.716;23.306;2023-03-14T03:42:08;3.47;;;3.17;;
20118;SDS011;10220;42.716;23.306;2023-03-14T03:44:36;3.43;;;2.83;;
20118;SDS011;10220;42.716;23.306;2023-03-14T03:47:02;7.87;;;4.80;;
20118;SDS011;10220;42.716;23.306;2023-03-14T03:49:30;5.73;;;3.73;;
20118;SDS011;10220;42.716;23.306;2023-03-14T03:52:00;4.67;;;4.27;;
20118;SDS011;10220;42.716;23.306;2023-03-14T03:54:25;6.10;;;4.47;;
20118;SDS011;10220;42.716;23.306;2023-03-14T03:56:54;9.77;;;3.47;;
20118;SDS011;10220;42.716;23.306;2023-03-14T03:59:19;4.50;;;4.07;;
20118;SDS011;10220;42.716;23.306;2023-03-14T04:01:48;7.27;;;4.23;;
20118;SDS011;10220;42.716;23.306;2023-03-14T04:04:13;4.87;;;3.80;;
20118;SDS011;10220;42.716;23.306;2023-03-14T04:06:39;4.77;;;4.30;;
20118;SDS011;10220;42.716;23.306;2023-03-14T04:09:05;5.30;;;4.63;;
20118;SDS011;10220;42.716;23.306;2023-03-14T04:11:30;4.97;;;3.93;;
20118;SDS011;10220;42.716;23.306;2023-03-14T04:13:56;9.87;;;4.93;;
20118;SDS011;10220;42.716;23.306;2023-03-14T04:16:24;7.27;;;4.97;;
20118;SDS011;10220;42.716;23.306;2023-03-14T04:18:50;6.23;;;5.63;;
20118;SDS011;10220;42.716;23.306;2023-03-14T04:21:17;6.03;;;3.53;;
20118;SDS011;10220;42.716;23.306;2023-03-14T04:23:49;4.00;;;3.63;;
20118;SDS011;10220;42.716;23.306;2023-03-14T04:26:15;7.23;;;4.10;;
20118;SDS011;10220;42.716;23.306;2023-03-14T04:28:40;8.10;;;5.30;;
20118;SDS011;10220;42.716;23.306;2023-03-14T04:31:15;5.30;;;4.27;;
20118;SDS011;10220;42.716;23.306;2023-03-14T04:33:45;4.57;;;3.77;;
20118;SDS011;10220;42.716;23.306;2023-03-14T04:36:13;3.67;;;3.40;;
20118;SDS011;10220;42.716;23.306;2023-03-14T04:38:39;7.23;;;4.83;;
20118;SDS011;10220;42.716;23.306;2023-03-14T04:41:05;5.97;;;5.30;;
20118;SDS011;10220;42.716;23.306;2023-03-14T04:43:31;5.47;;;4.87;;
20118;SDS011;10220;42.716;23.306;2023-03-14T04:45:57;4.70;;;3.57;;
20118;SDS011;10220;42.716;23.306;2023-03-14T04:48:23;5.07;;;4.57;;
20118;SDS011;10220;42.716;23.306;2023-03-14T04:50:50;6.40;;;4.70;;
20118;SDS011;10220;42.716;23.306;2023-03-14T04:53:16;6.47;;;5.10;;
20118;SDS011;10220;42.716;23.306;2023-03-14T04:55:49;3.77;;;3.47;;
20118;SDS011;10220;42.716;23.306;2023-03-14T04:58:16;8.60;;;4.97;;
20118;SDS011;10220;42.716;23.306;2023-03-14T05:00:41;7.70;;;5.27;;
20118;SDS011;10220;42.716;23.306;2023-03-14T05:03:10;16.10;;;5.37;;
20118;SDS011;10220;42.716;23.306;2023-03-14T05:05:35;8.43;;;5.53;;
20118;SDS011;10220;42.716;23.306;2023-03-14T05:08:00;5.70;;;4.30;;
20118;SDS011;10220;42.716;23.306;2023-03-14T05:10:26;7.47;;;6.37;;
20118;SDS011;10220;42.716;23.306;2023-03-14T05:12:51;14.13;;;8.80;;
20118;SDS011;10220;42.716;23.306;2023-03-14T05:15:21;34.13;;;18.00;;
20118;SDS011;10220;42.716;23.306;2023-03-14T05:17:47;31.70;;;20.60;;
20118;SDS011;10220;42.716;23.306;2023-03-14T05:20:14;23.13;;;13.60;;
20118;SDS011;10220;42.716;23.306;2023-03-14T05:22:40;15.03;;;9.57;;
20118;SDS011;10220;42.716;23.306;2023-03-14T05:25:06;16.37;;;7.80;;
20118;SDS011;10220;42.716;23.306;2023-03-14T05:27:32;11.50;;;7.00;;
20118;SDS011;10220;42.716;23.306;2023-03-14T05:30:01;6.90;;;4.73;;
20118;SDS011;10220;42.716;23.306;2023-03-14T05:32:32;6.40;;;4.10;;
20118;SDS011;10220;42.716;23.306;2023-03-14T05:34:58;6.07;;;3.63;;
20118;SDS011;10220;42.716;23.306;2023-03-14T05:37:27;9.13;;;4.73;;
20118;SDS011;10220;42.716;23.306;2023-03-14T05:39:53;7.40;;;4.77;;
20118;SDS011;10220;42.716;23.306;2023-03-14T05:42:18;15.93;;;8.80;;
20118;SDS011;10220;42.716;23.306;2023-03-14T05:44:44;14.20;;;7.03;;
20118;SDS011;10220;42.716;23.306;2023-03-14T05:47:09;11.23;;;6.57;;
20118;SDS011;10220;42.716;23.306;2023-03-14T05:49:35;11.13;;;5.47;;
20118;SDS011;10220;42.716;23.306;2023-03-14T05:52:00;9.43;;;6.07;;
20118;SDS011;10220;42.716;23.306;2023-03-14T05:54:26;7.10;;;5.00;;
20118;SDS011;10220;42.716;23.306;2023-03-14T05:56:51;9.10;;;4.87;;
20118;SDS011;10220;42.716;23.306;2023-03-14T05:59:16;9.73;;;6.03;;
20118;SDS011;10220;42.716;23.306;2023-03-14T06:01:49;9.33;;;5.27;;
20118;SDS011;10220;42.716;23.306;2023-03-14T06:04:19;7.67;;;5.60;;
20118;SDS011;10220;42.716;23.306;2023-03-14T06:06:45;9.47;;;5.80;;
20118;SDS011;10220;42.716;23.306;2023-03-14T06:09:13;8.97;;;6.20;;
20118;SDS011;10220;42.716;23.306;2023-03-14T06:11:38;9.10;;;5.77;;
20118;SDS011;10220;42.716;23.306;2023-03-14T06:14:03;7.60;;;5.23;;
20118;SDS011;10220;42.716;23.306;2023-03-14T06:16:29;10.03;;;6.23;;
20118;SDS011;10220;42.716;23.306;2023-03-14T06:18:54;9.20;;;5.60;;
20118;SDS011;10220;42.716;23.306;2023-03-14T06:21:20;7.07;;;5.33;;
20118;SDS011;10220;42.716;23.306;2023-03-14T06:23:46;7.43;;;5.00;;
20118;SDS011;10220;42.716;23.306;2023-03-14T06:26:11;10.97;;;5.17;;
20118;SDS011;10220;42.716;23.306;2023-03-14T06:28:37;7.17;;;5.13;;
20118;SDS011;10220;42.716;23.306;2023-03-14T06:31:03;10.93;;;5.97;;
20118;SDS011;10220;42.716;23.306;2023-03-14T06:33:29;9.57;;;5.17;;
20118;SDS011;10220;42.716;23.306;2023-03-14T06:35:54;12.37;;;6.10;;
20118;SDS011;10220;42.716;23.306;2023-03-14T06:38:20;10.07;;;6.23;;
20118;SDS011;10220;42.716;23.306;2023-03-14T06:40:45;8.60;;;5.50;;
20118;SDS011;10220;42.716;23.306;2023-03-14T06:43:10;7.23;;;4.70;;
20118;SDS011;10220;42.716;23.306;2023-03-14T06:45:36;11.37;;;5.93;;
20118;SDS011;10220;42.716;23.306;2023-03-14T06:48:01;8.93;;;5.73;;
20118;SDS011;10220;42.716;23.306;2023-03-14T06:50:27;11.87;;;6.20;;
20118;SDS011;10220;42.716;23.306;2023-03-14T06:52:53;18.13;;;6.40;;
20118;SDS011;10220;42.716;23.306;2023-03-14T06:55:18;7.77;;;4.70;;
20118;SDS011;10220;42.716;23.306;2023-03-14T06:57:44;10.27;;;5.43;;
20118;SDS011;10220;42.716;23.306;2023-03-14T07:00:09;11.13;;;5.47;;
20118;SDS011;10220;42.716;23.306;2023-03-14T07:02:36;9.43;;;6.07;;
20118;SDS011;10220;42.716;23.306;2023-03-14T07:05:02;9.17;;;6.43;;
20118;SDS011;10220;42.716;23.306;2023-03-14T07:07:28;8.00;;;5.60;;
20118;SDS011;10220;42.716;23.306;2023-03-14T07:09:53;7.33;;;5.63;;
20118;SDS011;10220;42.716;23.306;2023-03-14T07:12:19;8.17;;;5.43;;
20118;SDS011;10220;42.716;23.306;2023-03-14T07:14:44;13.07;;;6.33;;
20118;SDS011;10220;42.716;23.306;2023-03-14T07:17:10;10.53;;;6.60;;
20118;SDS011;10220;42.716;23.306;2023-03-14T07:19:35;12.27;;;6.03;;
20118;SDS011;10220;42.716;23.306;2023-03-14T07:25:22;18.03;;;7.20;;
20118;SDS011;10220;42.716;23.306;2023-03-14T07:27:53;10.63;;;6.47;;
20118;SDS011;10220;42.716;23.306;2023-03-14T07:30:19;13.23;;;6.83;;
20118;SDS011;10220;42.716;23.306;2023-03-14T07:32:44;9.97;;;6.30;;
20118;SDS011;10220;42.716;23.306;2023-03-14T07:35:10;12.43;;;6.50;;
20118;SDS011;10220;42.716;23.306;2023-03-14T07:37:35;20.50;;;6.87;;
20118;SDS011;10220;42.716;23.306;2023-03-14T07:40:01;22.43;;;9.53;;
20118;SDS011;10220;42.716;23.306;2023-03-14T07:42:26;10.93;;;6.13;;
20118;SDS011;10220;42.716;23.306;2023-03-14T07:44:51;13.87;;;7.63;;
20118;SDS011;10220;42.716;23.306;2023-03-14T07:47:17;17.37;;;9.17;;
20118;SDS011;10220;42.716;23.306;2023-03-14T07:49:42;33.65;;;16.35;;
20118;SDS011;10220;42.716;23.306;2023-03-14T07:52:08;17.90;;;9.45;;
20118;SDS011;10220;42.716;23.306;2023-03-14T07:54:33;17.63;;;8.90;;
20118;SDS011;10220;42.716;23.306;2023-03-14T07:56:58;27.58;;;14.30;;
20118;SDS011;10220;42.716;23.306;2023-03-14T07:59:25;19.02;;;10.52;;
20118;SDS011;10220;42.716;23.306;2023-03-14T08:01:52;17.00;;;9.55;;
20118;SDS011;10220;42.716;23.306;2023-03-14T08:04:17;8.55;;;6.13;;
20118;SDS011;10220;42.716;23.306;2023-03-14T08:10:08;8.02;;;6.10;;
20118;SDS011;10220;42.716;23.306;2023-03-14T08:12:45;9.07;;;4.43;;
20118;SDS011;10220;42.716;23.306;2023-03-14T08:15:11;15.23;;;7.53;;
20118;SDS011;10220;42.716;23.306;2023-03-14T08:17:39;8.77;;;4.93;;
20118;SDS011;10220;42.716;23.306;2023-03-14T08:20:28;14.27;;;8.15;;
20118;SDS011;10220;42.716;23.306;2023-03-14T08:22:58;9.95;;;4.00;;
20118;SDS011;10220;42.716;23.306;2023-03-14T08:25:25;5.90;;;3.85;;
20118;SDS011;10220;42.716;23.306;2023-03-14T08:27:51;15.38;;;7.97;;
20118;SDS011;10220;42.716;23.306;2023-03-14T08:30:18;7.28;;;4.75;;
20118;SDS011;10220;42.716;23.306;2023-03-14T08:39:56;3.22;;;2.92;;
20118;SDS011;10220;42.716;23.306;2023-03-14T08:42:25;4.82;;;3.05;;
20118;SDS011;10220;42.716;23.306;2023-03-14T08:44:51;7.90;;;3.75;;
20118;SDS011;10220;42.716;23.306;2023-03-14T08:47:19;3.22;;;2.42;;
20118;SDS011;10220;42.716;23.306;2023-03-14T08:49:45;4.90;;;2.95;;
20118;SDS011;10220;42.716;23.306;2023-03-14T08:52:10;6.18;;;3.10;;
20118;SDS011;10220;42.716;23.306;2023-03-14T08:54:53;4.22;;;3.00;;
20118;SDS011;10220;42.716;23.306;2023-03-14T08:57:19;7.32;;;4.20;;
20118;SDS011;10220;42.716;23.306;2023-03-14T09:43:42;4.32;;;2.65;;
20118;SDS011;10220;42.716;23.306;2023-03-14T09:49:34;5.35;;;3.00;;
20118;SDS011;10220;42.716;23.306;2023-03-14T09:52:12;3.92;;;2.72;;
20118;SDS011;10220;42.716;23.306;2023-03-14T09:54:43;6.45;;;3.47;;
20118;SDS011;10220;42.716;23.306;2023-03-14T09:57:29;5.72;;;3.30;;
20118;SDS011;10220;42.716;23.306;2023-03-14T10:00:00;8.85;;;3.97;;
20118;SDS011;10220;42.716;23.306;2023-03-14T10:02:38;4.88;;;3.50;;
20118;SDS011;10220;42.716;23.306;2023-03-14T10:05:25;5.03;;;3.03;;
20118;SDS011;10220;42.716;23.306;2023-03-14T10:07:50;5.72;;;3.47;;
20118;SDS011;10220;42.716;23.306;2023-03-14T10:10:17;7.30;;;3.50;;
20118;SDS011;10220;42.716;23.306;2023-03-14T10:12:54;4.55;;;3.17;;
20118;SDS011;10220;42.716;23.306;2023-03-14T10:15:26;4.28;;;3.25;;
20118;SDS011;10220;42.716;23.306;2023-03-14T10:17:58;6.55;;;3.30;;
20118;SDS011;10220;42.716;23.306;2023-03-14T10:20:43;4.18;;;2.63;;
20118;SDS011;10220;42.716;23.306;2023-03-14T10:25:45;4.70;;;3.20;;
20118;SDS011;10220;42.716;23.306;2023-03-14T10:28:27;5.13;;;2.85;;
20118;SDS011;10220;42.716;23.306;2023-03-14T10:30:54;5.35;;;3.33;;
20118;SDS011;10220;42.716;23.306;2023-03-14T10:33:23;4.80;;;2.70;;
20118;SDS011;10220;42.716;23.306;2023-03-14T10:35:55;5.38;;;3.28;;
20118;SDS011;10220;42.716;23.306;2023-03-14T10:38:23;4.80;;;3.10;;
20118;SDS011;10220;42.716;23.306;2023-03-14T10:40:51;4.65;;;3.05;;
20118;SDS011;10220;42.716;23.306;2023-03-14T10:43:21;5.15;;;3.78;;
20118;SDS011;10220;42.716;23.306;2023-03-14T10:46:02;4.55;;;2.95;;
20118;SDS011;10220;42.716;23.306;2023-03-14T10:49:04;4.20;;;3.58;;
20118;SDS011;10220;42.716;23.306;2023-03-14T10:51:31;6.57;;;3.40;;
20118;SDS011;10220;42.716;23.306;2023-03-14T10:56:42;6.60;;;3.35;;
20118;SDS011;10220;42.716;23.306;2023-03-14T10:59:29;3.80;;;2.70;;
20118;SDS011;10220;42.716;23.306;2023-03-14T11:05:32;5.63;;;3.00;;
20118;SDS011;10220;42.716;23.306;2023-03-14T11:15:08;2.95;;;2.65;;
20118;SDS011;10220;42.716;23.306;2023-03-14T11:33:02;4.18;;;2.05;;
20118;SDS011;10220;42.716;23.306;2023-03-14T11:41:14;3.97;;;2.00;;
20118;SDS011;10220;42.716;23.306;2023-03-14T11:43:47;3.55;;;1.88;;
20118;SDS011;10220;42.716;23.306;2023-03-14T11:46:56;4.47;;;2.03;;
20118;SDS011;10220;42.716;23.306;2023-03-14T11:49:17;4.15;;;1.98;;
20118;SDS011;10220;42.716;23.306;2023-03-14T11:51:47;2.25;;;1.63;;
20118;SDS011;10220;42.716;23.306;2023-03-14T11:56:52;2.45;;;2.08;;
20118;SDS011;10220;42.716;23.306;2023-03-14T12:10:39;3.55;;;2.25;;
20118;SDS011;10220;42.716;23.306;2023-03-14T12:13:10;1.95;;;1.60;;
20118;SDS011;10220;42.716;23.306;2023-03-14T12:15:39;4.38;;;1.70;;
20118;SDS011;10220;42.716;23.306;2023-03-14T12:18:19;1.83;;;1.65;;
20118;SDS011;10220;42.716;23.306;2023-03-14T12:20:56;3.63;;;1.70;;
20118;SDS011;10220;42.716;23.306;2023-03-14T12:23:24;1.85;;;1.63;;
20118;SDS011;10220;42.716;23.306;2023-03-14T12:28:35;4.07;;;1.50;;
20118;SDS011;10220;42.716;23.306;2023-03-14T12:34:01;4.00;;;1.83;;
20118;SDS011;10220;42.716;23.306;2023-03-14T12:44:46;2.47;;;1.60;;
20118;SDS011;10220;42.716;23.306;2023-03-14T12:49:50;2.38;;;1.27;;
20118;SDS011;10220;42.716;23.306;2023-03-14T12:52:21;1.73;;;1.45;;
20118;SDS011;10220;42.716;23.306;2023-03-14T12:54:57;2.15;;;1.10;;
20118;SDS011;10220;42.716;23.306;2023-03-14T12:58:12;3.38;;;1.38;;
20118;SDS011;10220;42.716;23.306;2023-03-14T13:00:50;10.60;;;1.25;;
20118;SDS011;10220;42.716;23.306;2023-03-14T13:03:24;2.22;;;1.30;;
20118;SDS011;10220;42.716;23.306;2023-03-14T13:05:57;1.90;;;1.45;;
20118;SDS011;10220;42.716;23.306;2023-03-14T13:08:45;2.58;;;1.40;;
20118;SDS011;10220;42.716;23.306;2023-03-14T13:13:52;2.45;;;1.60;;
20118;SDS011;10220;42.716;23.306;2023-03-14T13:16:22;3.17;;;1.30;;
20118;SDS011;10220;42.716;23.306;2023-03-14T13:18:49;1.90;;;1.45;;
20118;SDS011;10220;42.716;23.306;2023-03-14T13:26:20;1.73;;;1.20;;
20118;SDS011;10220;42.716;23.306;2023-03-14T13:28:47;1.92;;;0.85;;
20118;SDS011;10220;42.716;23.306;2023-03-14T13:31:19;1.52;;;0.90;;
20118;SDS011;10220;42.716;23.306;2023-03-14T13:33:55;1.00;;;0.90;;
20118;SDS011;10220;42.716;23.306;2023-03-14T13:36:32;1.42;;;1.00;;
20118;SDS011;10220;42.716;23.306;2023-03-14T13:39:16;6.78;;;1.38;;
20118;SDS011;10220;42.716;23.306;2023-03-14T13:41:59;1.60;;;1.27;;
20118;SDS011;10220;42.716;23.306;2023-03-14T13:47:04;5.35;;;1.20;;
20118;SDS011;10220;42.716;23.306;2023-03-14T13:49:36;1.00;;;0.90;;
20118;SDS011;10220;42.716;23.306;2023-03-14T13:52:03;0.88;;;0.85;;
20118;SDS011;10220;42.716;23.306;2023-03-14T13:54:45;0.98;;;0.80;;
20118;SDS011;10220;42.716;23.306;2023-03-14T13:57:11;2.50;;;1.20;;
20118;SDS011;10220;42.716;23.306;2023-03-14T13:59:36;1.52;;;1.17;;
20118;SDS011;10220;42.716;23.306;2023-03-14T14:02:14;1.42;;;1.00;;
20118;SDS011;10220;42.716;23.306;2023-03-14T14:04:40;1.55;;;1.20;;
20118;SDS011;10220;42.716;23.306;2023-03-14T14:07:07;1.75;;;1.20;;
20118;SDS011;10220;42.716;23.306;2023-03-14T14:09:37;1.83;;;1.15;;
20118;SDS011;10220;42.716;23.306;2023-03-14T14:12:05;1.25;;;0.88;;
20118;SDS011;10220;42.716;23.306;2023-03-14T14:14:53;4.63;;;1.30;;
20118;SDS011;10220;42.716;23.306;2023-03-14T14:20:38;1.00;;;1.00;;
20118;SDS011;10220;42.716;23.306;2023-03-14T14:23:22;1.20;;;1.10;;
20118;SDS011;10220;42.716;23.306;2023-03-14T14:26:01;1.38;;;1.13;;
20118;SDS011;10220;42.716;23.306;2023-03-14T14:28:59;1.30;;;1.20;;
20118;SDS011;10220;42.716;23.306;2023-03-14T14:31:26;2.00;;;0.93;;
20118;SDS011;10220;42.716;23.306;2023-03-14T14:33:58;1.50;;;1.02;;
20118;SDS011;10220;42.716;23.306;2023-03-14T14:41:49;2.45;;;1.20;;
20118;SDS011;10220;42.716;23.306;2023-03-14T14:44:16;1.25;;;1.15;;
20118;SDS011;10220;42.716;23.306;2023-03-14T14:46:46;1.13;;;0.98;;
20118;SDS011;10220;42.716;23.306;2023-03-14T14:49:14;8.98;;;1.75;;
20118;SDS011;10220;42.716;23.306;2023-03-14T14:51:44;2.47;;;2.03;;
20118;SDS011;10220;42.716;23.306;2023-03-14T14:54:20;1.00;;;0.90;;
20118;SDS011;10220;42.716;23.306;2023-03-14T14:57:01;4.30;;;1.23;;
20118;SDS011;10220;42.716;23.306;2023-03-14T14:59:28;5.15;;;1.27;;
20118;SDS011;10220;42.716;23.306;2023-03-14T15:01:58;1.67;;;1.17;;
20118;SDS011;10220;42.716;23.306;2023-03-14T15:04:25;1.83;;;1.08;;
20118;SDS011;10220;42.716;23.306;2023-03-14T15:06:50;1.85;;;0.90;;
20118;SDS011;10220;42.716;23.306;2023-03-14T15:09:17;1.75;;;1.00;;
20118;SDS011;10220;42.716;23.306;2023-03-14T15:11:44;2.53;;;1.23;;
20118;SDS011;10220;42.716;23.306;2023-03-14T15:14:11;3.40;;;1.20;;
20118;SDS011;10220;42.716;23.306;2023-03-14T15:16:36;1.40;;;1.02;;
20118;SDS011;10220;42.716;23.306;2023-03-14T15:19:08;1.00;;;1.00;;
20118;SDS011;10220;42.716;23.306;2023-03-14T15:21:36;3.95;;;1.52;;
20118;SDS011;10220;42.716;23.306;2023-03-14T15:24:03;1.23;;;1.10;;
20118;SDS011;10220;42.716;23.306;2023-03-14T15:26:30;1.20;;;1.10;;
20118;SDS011;10220;42.716;23.306;2023-03-14T15:28:55;2.22;;;1.10;;
20118;SDS011;10220;42.716;23.306;2023-03-14T15:31:34;2.58;;;1.10;;
20118;SDS011;10220;42.716;23.306;2023-03-14T15:34:02;1.55;;;1.08;;
20118;SDS011;10220;42.716;23.306;2023-03-14T15:36:29;1.85;;;1.50;;
20118;SDS011;10220;42.716;23.306;2023-03-14T15:38:59;1.35;;;1.08;;
20118;SDS011;10220;42.716;23.306;2023-03-14T15:41:35;2.45;;;1.10;;
20118;SDS011;10220;42.716;23.306;2023-03-14T15:44:03;1.10;;;1.05;;
20118;SDS011;10220;42.716;23.306;2023-03-14T15:46:29;4.97;;;1.50;;
20118;SDS011;10220;42.716;23.306;2023-03-14T15:48:54;1.65;;;1.20;;
20118;SDS011;10220;42.716;23.306;2023-03-14T15:51:20;1.92;;;1.30;;
20118;SDS011;10220;42.716;23.306;2023-03-14T15:53:46;6.18;;;1.80;;
20118;SDS011;10220;42.716;23.306;2023-03-14T15:56:21;1.77;;;1.33;;
20118;SDS011;10220;42.716;23.306;2023-03-14T15:58:49;1.88;;;1.63;;
20118;SDS011;10220;42.716;23.306;2023-03-14T16:01:15;2.55;;;1.80;;
20118;SDS011;10220;42.716;23.306;2023-03-14T16:03:42;10.57;;;1.80;;
20118;SDS011;10220;42.716;23.306;2023-03-14T16:06:09;3.78;;;2.00;;
20118;SDS011;10220;42.716;23.306;2023-03-14T16:08:34;2.10;;;1.90;;
20118;SDS011;10220;42.716;23.306;2023-03-14T16:11:00;5.13;;;2.25;;
20118;SDS011;10220;42.716;23.306;2023-03-14T16:13:25;4.55;;;1.27;;
20118;SDS011;10220;42.716;23.306;2023-03-14T16:15:53;5.43;;;2.22;;
20118;SDS011;10220;42.716;23.306;2023-03-14T16:18:22;2.92;;;2.25;;
20118;SDS011;10220;42.716;23.306;2023-03-14T16:20:55;2.95;;;2.22;;
20118;SDS011;10220;42.716;23.306;2023-03-14T16:23:25;8.32;;;2.33;;
20118;SDS011;10220;42.716;23.306;2023-03-14T16:25:52;1.83;;;1.67;;
20118;SDS011;10220;42.716;23.306;2023-03-14T16:28:18;2.17;;;1.65;;
20118;SDS011;10220;42.716;23.306;2023-03-14T16:30:45;2.83;;;2.30;;
20118;SDS011;10220;42.716;23.306;2023-03-14T16:33:11;2.38;;;1.70;;
20118;SDS011;10220;42.716;23.306;2023-03-14T16:35:38;5.85;;;1.98;;
20118;SDS011;10220;42.716;23.306;2023-03-14T16:38:04;5.10;;;1.83;;
20118;SDS011;10220;42.716;23.306;2023-03-14T16:40:29;3.22;;;2.33;;
20118;SDS011;10220;42.716;23.306;2023-03-14T16:42:55;3.88;;;2.25;;
20118;SDS011;10220;42.716;23.306;2023-03-14T16:45:20;2.95;;;2.17;;
20118;SDS011;10220;42.716;23.306;2023-03-14T16:47:46;4.65;;;2.58;;
20118;SDS011;10220;42.716;23.306;2023-03-14T16:50:11;4.72;;;2.17;;
20118;SDS011;10220;42.716;23.306;2023-03-14T16:52:36;3.00;;;2.15;;
20118;SDS011;10220;42.716;23.306;2023-03-14T16:55:02;5.25;;;2.67;;
20118;SDS011;10220;42.716;23.306;2023-03-14T16:57:28;3.88;;;2.22;;
20118;SDS011;10220;42.716;23.306;2023-03-14T16:59:54;4.65;;;2.30;;
20118;SDS011;10220;42.716;23.306;2023-03-14T17:02:19;6.05;;;3.20;;
20118;SDS011;10220;42.716;23.306;2023-03-14T17:04:45;4.13;;;2.80;;
20118;SDS011;10220;42.716;23.306;2023-03-14T17:07:10;2.88;;;2.40;;
20118;SDS011;10220;42.716;23.306;2023-03-14T17:09:35;4.20;;;2.28;;
20118;SDS011;10220;42.716;23.306;2023-03-14T17:12:01;4.15;;;2.90;;
20118;SDS011;10220;42.716;23.306;2023-03-14T17:14:27;3.83;;;2.38;;
20118;SDS011;10220;42.716;23.306;2023-03-14T17:16:53;5.18;;;2.50;;
20118;SDS011;10220;42.716;23.306;2023-03-14T17:19:18;3.65;;;2.55;;
20118;SDS011;10220;42.716;23.306;2023-03-14T17:21:44;2.72;;;2.25;;
20118;SDS011;10220;42.716;23.306;2023-03-14T17:24:09;12.02;;;2.92;;